Time;durP1;ratioP1;P1;durP2;ratioP2;P2;SDS_P1;SDS_P2;PMS_P1;PMS_P2;Temp;Humidity;BMP_temperature;BMP_pressure;BME280_temperature;BME280_humidity;BME280_pressure;Samples;Min_cycle;Max_cycle;Signal;HPM_P1;HPM_P2
2022/07/15 00:01:58;;;;;;;24.13;6.68;;;11.50;99.90;;;;;;5068511;28;20432;-64
2022/07/15 00:04:24;;;;;;;16.67;5.25;;;11.50;99.90;;;;;;5069121;28;20128;-64
2022/07/15 00:06:49;;;;;;;20.00;5.90;;;11.60;99.90;;;;;;5052319;28;20131;-64
2022/07/15 00:09:15;;;;;;;22.48;6.03;;;11.60;99.90;;;;;;5068950;28;20063;-64
2022/07/15 00:15:24;;;;;;;22.65;6.53;;;11.70;99.90;;;;;;5053653;28;20083;-63
2022/07/15 00:17:50;;;;;;;23.73;7.65;;;11.70;99.90;;;;;;5051911;28;20041;-63
2022/07/15 00:20:17;;;;;;;26.52;7.03;;;11.70;99.90;;;;;;5056629;28;20040;-63
2022/07/15 00:22:44;;;;;;;20.00;6.60;;;11.70;99.90;;;;;;5058890;28;20484;-63
2022/07/15 00:25:11;;;;;;;30.92;7.38;;;11.70;99.90;;;;;;5071475;28;20036;-63
2022/07/15 00:27:50;;;;;;;26.27;7.85;;;11.70;99.90;;;;;;5072437;28;20467;-64
2022/07/15 00:30:15;;;;;;;29.45;8.52;;;11.70;99.90;;;;;;5072213;28;20055;-63
2022/07/15 00:32:41;;;;;;;24.65;8.00;;;11.70;99.90;;;;;;5072127;28;20040;-64
2022/07/15 00:35:07;;;;;;;28.67;8.77;;;11.70;99.90;;;;;;5060098;28;20483;-63
2022/07/15 00:37:33;;;;;;;30.27;10.15;;;11.70;99.90;;;;;;5080116;28;20037;-63
2022/07/15 00:39:58;;;;;;;29.27;9.43;;;11.60;99.90;;;;;;5071888;28;20589;-63
2022/07/15 00:45:13;;;;;;;38.47;10.70;;;11.60;99.90;;;;;;5072014;28;20564;-63
2022/07/15 00:47:41;;;;;;;35.55;10.93;;;11.60;99.90;;;;;;5065433;28;20052;-64
2022/07/15 00:50:07;;;;;;;37.60;11.18;;;11.70;99.90;;;;;;5071208;28;20034;-64
2022/07/15 00:52:38;;;;;;;35.38;11.05;;;11.70;99.90;;;;;;5069734;28;20041;-64
2022/07/15 00:55:06;;;;;;;39.22;11.27;;;11.70;99.90;;;;;;5054178;28;20049;-63
2022/07/15 00:57:35;;;;;;;32.70;11.52;;;11.80;99.90;;;;;;5073854;28;20086;-64
2022/07/15 01:00:03;;;;;;;37.38;11.43;;;11.90;99.90;;;;;;5078398;28;20090;-64
2022/07/15 01:02:31;;;;;;;31.17;11.98;;;11.90;99.90;;;;;;5059211;28;20094;-64
2022/07/15 01:05:00;;;;;;;40.97;10.77;;;11.90;99.90;;;;;;5077300;28;20123;-64
2022/07/15 01:07:26;;;;;;;37.22;10.70;;;12.10;99.90;;;;;;5061624;28;20452;-64
2022/07/15 01:09:51;;;;;;;31.95;10.63;;;12.10;99.90;;;;;;5062152;28;20072;-64
2022/07/15 01:12:17;;;;;;;32.35;10.55;;;12.10;99.90;;;;;;5068517;28;20032;-63
2022/07/15 01:14:43;;;;;;;34.45;10.70;;;12.20;99.90;;;;;;5058366;28;20079;-64
2022/07/15 01:17:12;;;;;;;28.98;9.90;;;12.20;99.90;;;;;;5060506;28;20503;-63
2022/07/15 01:19:38;;;;;;;29.98;10.85;;;12.20;99.90;;;;;;5074031;28;20483;-63
2022/07/15 01:22:05;;;;;;;33.15;10.32;;;12.20;99.90;;;;;;5067570;28;20044;-63
2022/07/15 01:24:30;;;;;;;34.72;10.38;;;12.20;99.90;;;;;;5073584;28;20036;-64
2022/07/15 01:26:56;;;;;;;33.50;10.68;;;12.30;99.90;;;;;;5077928;28;20134;-64
2022/07/15 01:29:22;;;;;;;36.75;11.10;;;12.30;99.90;;;;;;5078120;28;20040;-64
2022/07/15 01:31:47;;;;;;;38.70;10.80;;;12.20;99.90;;;;;;5068422;28;20119;-64
2022/07/15 01:37:54;;;;;;;36.13;10.82;;;12.30;99.90;;;;;;5058145;28;20052;-63
2022/07/15 01:40:20;;;;;;;31.95;10.27;;;12.30;99.90;;;;;;5069466;28;20043;-64
2022/07/15 01:42:46;;;;;;;36.33;11.25;;;12.20;99.90;;;;;;5070034;28;20488;-64
2022/07/15 01:45:12;;;;;;;36.72;10.23;;;12.20;99.90;;;;;;5064913;28;20551;-64
2022/07/15 01:47:47;;;;;;;29.60;10.18;;;12.30;99.90;;;;;;5074630;28;20067;-63
2022/07/15 01:50:14;;;;;;;36.00;10.45;;;12.30;99.90;;;;;;5057919;28;20036;-64
2022/07/15 01:52:40;;;;;;;38.92;10.43;;;12.30;99.90;;;;;;5071226;28;20044;-63
2022/07/15 01:55:06;;;;;;;33.15;9.55;;;12.20;99.90;;;;;;5073668;28;20498;-64
2022/07/15 01:57:32;;;;;;;33.85;10.57;;;12.30;99.90;;;;;;5071654;28;20094;-64
2022/07/15 01:59:58;;;;;;;32.75;10.50;;;12.30;99.90;;;;;;5043077;28;20049;-63
2022/07/15 02:06:05;;;;;;;26.83;9.10;;;12.40;99.90;;;;;;5076086;28;20044;-63
2022/07/15 02:08:30;;;;;;;30.65;9.52;;;12.30;99.90;;;;;;5076526;28;20482;-64
2022/07/15 02:10:56;;;;;;;26.33;8.98;;;12.40;99.90;;;;;;5072331;28;20111;-64
2022/07/15 02:13:22;;;;;;;30.40;9.23;;;12.40;99.90;;;;;;5076107;28;20456;-63
2022/07/15 02:15:47;;;;;;;33.47;9.10;;;12.50;99.90;;;;;;5066252;28;20040;-64
2022/07/15 02:18:13;;;;;;;41.20;8.30;;;12.50;99.90;;;;;;5067286;28;20044;-64
2022/07/15 02:20:39;;;;;;;29.58;8.70;;;12.50;99.90;;;;;;5074379;28;20037;-64
2022/07/15 02:23:04;;;;;;;26.95;7.93;;;12.50;99.90;;;;;;5072783;28;20037;-64
2022/07/15 02:25:32;;;;;;;29.83;7.65;;;12.60;99.90;;;;;;5069746;28;20047;-64
2022/07/15 02:28:04;;;;;;;26.52;7.82;;;12.60;99.90;;;;;;5059826;28;20064;-64
2022/07/15 02:30:33;;;;;;;25.25;7.85;;;12.50;99.90;;;;;;5061275;28;20050;-64
2022/07/15 02:32:59;;;;;;;23.55;8.13;;;12.50;99.90;;;;;;5070606;28;20124;-64
2022/07/15 02:35:25;;;;;;;28.67;7.82;;;12.50;99.90;;;;;;5058924;28;20875;-64
2022/07/15 02:37:51;;;;;;;21.50;6.78;;;12.50;99.90;;;;;;5065745;28;20582;-64
2022/07/15 02:40:17;;;;;;;32.20;8.05;;;12.50;99.90;;;;;;5074032;28;20127;-63
2022/07/15 02:42:51;;;;;;;30.83;7.72;;;12.40;99.90;;;;;;5061240;28;20178;-64
2022/07/15 02:45:21;;;;;;;27.95;8.32;;;12.50;99.90;;;;;;5074712;28;20107;-63
2022/07/15 02:47:47;;;;;;;25.02;8.48;;;12.40;99.90;;;;;;5069746;28;20059;-63
2022/07/15 02:50:14;;;;;;;32.70;8.30;;;12.40;99.90;;;;;;5073629;28;20052;-63
2022/07/15 02:52:40;;;;;;;28.52;8.45;;;12.30;99.90;;;;;;5069673;28;20048;-64
2022/07/15 02:55:08;;;;;;;35.65;8.60;;;12.30;99.90;;;;;;5073561;28;20048;-64
2022/07/15 02:57:34;;;;;;;28.10;8.57;;;12.30;99.90;;;;;;5068982;28;20094;-64
2022/07/15 03:00:00;;;;;;;27.92;8.20;;;12.30;99.90;;;;;;5088958;28;20479;-63
2022/07/15 03:02:26;;;;;;;26.73;8.05;;;12.10;99.90;;;;;;5068804;28;20071;-63
2022/07/15 03:04:52;;;;;;;31.88;8.98;;;12.20;99.90;;;;;;5054954;28;20076;-63
2022/07/15 03:07:17;;;;;;;36.10;9.50;;;12.10;99.90;;;;;;5062104;28;20068;-63
2022/07/15 03:09:43;;;;;;;31.92;8.63;;;12.10;99.90;;;;;;5069886;28;20056;-63
2022/07/15 03:12:09;;;;;;;28.85;9.10;;;12.00;99.90;;;;;;5073327;28;20546;-64
2022/07/15 03:14:34;;;;;;;34.75;9.27;;;11.90;99.90;;;;;;5060304;28;20066;-63
2022/07/15 03:17:00;;;;;;;31.17;9.45;;;12.00;99.90;;;;;;5073313;28;20068;-64
2022/07/15 03:19:25;;;;;;;36.33;9.73;;;11.80;99.90;;;;;;5061325;28;20044;-64
2022/07/15 03:21:51;;;;;;;31.08;9.05;;;11.90;99.90;;;;;;5068836;28;20500;-63
2022/07/15 03:24:17;;;;;;;35.08;8.77;;;11.90;99.90;;;;;;5053082;28;20044;-63
2022/07/15 03:30:23;;;;;;;29.42;8.23;;;11.80;99.90;;;;;;5062100;28;20059;-63
2022/07/15 03:32:49;;;;;;;33.38;8.98;;;11.90;99.90;;;;;;5068848;28;20397;-63
2022/07/15 03:35:14;;;;;;;32.47;9.57;;;11.80;99.90;;;;;;5072250;28;20053;-63
2022/07/15 03:37:40;;;;;;;31.15;7.90;;;11.90;99.90;;;;;;5070471;28;20142;-64
2022/07/15 03:40:06;;;;;;;26.10;7.82;;;11.80;99.90;;;;;;5072729;28;20145;-63
2022/07/15 03:42:32;;;;;;;32.80;8.57;;;11.90;99.90;;;;;;5066665;28;20044;-64
2022/07/15 03:44:57;;;;;;;32.65;8.95;;;11.90;99.90;;;;;;5072486;28;20040;-63
2022/07/15 03:47:23;;;;;;;28.20;8.30;;;11.90;99.90;;;;;;5063884;28;20068;-63
2022/07/15 03:49:48;;;;;;;29.80;8.20;;;11.70;99.90;;;;;;5068460;28;20044;-63
2022/07/15 03:52:14;;;;;;;32.30;8.55;;;11.80;99.90;;;;;;5072354;28;20074;-63
2022/07/15 03:54:40;;;;;;;36.30;8.65;;;11.80;99.90;;;;;;5072427;28;20124;-63
2022/07/15 03:57:05;;;;;;;35.25;9.55;;;11.70;99.90;;;;;;5067827;28;20036;-64
2022/07/15 03:59:31;;;;;;;28.20;7.65;;;11.80;99.90;;;;;;5066734;28;20498;-63
2022/07/15 04:01:56;;;;;;;37.90;8.18;;;11.70;99.90;;;;;;5068117;28;20029;-63
2022/07/15 04:04:22;;;;;;;26.55;8.30;;;11.70;99.90;;;;;;5052282;28;20032;-63
2022/07/15 04:06:47;;;;;;;26.00;8.13;;;11.80;99.90;;;;;;5077435;28;20040;-63
2022/07/15 04:09:13;;;;;;;42.83;10.02;;;11.70;99.90;;;;;;5061448;28;20033;-63
2022/07/15 04:11:41;;;;;;;33.35;8.43;;;11.70;99.90;;;;;;5064421;28;20041;-63
2022/07/15 04:14:09;;;;;;;31.92;9.00;;;11.80;99.90;;;;;;5063666;28;20053;-64
2022/07/15 04:16:34;;;;;;;35.83;9.15;;;11.80;99.90;;;;;;5071989;28;20056;-64
2022/07/15 04:19:00;;;;;;;42.63;9.60;;;11.70;99.90;;;;;;5072148;28;20032;-63
2022/07/15 04:25:08;;;;;;;32.42;9.52;;;11.80;99.90;;;;;;5073499;28;20051;-64
2022/07/15 04:27:34;;;;;;;35.03;9.77;;;11.70;99.90;;;;;;5071820;28;20044;-65
2022/07/15 04:30:00;;;;;;;35.97;9.43;;;11.70;99.90;;;;;;5071024;28;20067;-65
2022/07/15 04:32:26;;;;;;;37.13;9.35;;;11.60;99.90;;;;;;5067291;28;20119;-64
2022/07/15 04:34:52;;;;;;;35.53;9.30;;;11.70;99.90;;;;;;5072092;28;20047;-63
2022/07/15 04:37:18;;;;;;;38.28;9.68;;;11.70;99.90;;;;;;5071253;28;20068;-64
2022/07/15 04:39:44;;;;;;;33.42;8.90;;;11.80;99.90;;;;;;5069829;28;20399;-63
2022/07/15 04:42:10;;;;;;;38.63;9.35;;;11.70;99.90;;;;;;5071694;28;20032;-63
2022/07/15 04:44:35;;;;;;;36.88;9.68;;;11.80;99.90;;;;;;5071963;28;20080;-63
2022/07/15 04:47:02;;;;;;;30.42;8.40;;;11.90;99.90;;;;;;5072148;28;20048;-64
2022/07/15 04:52:13;;;;;;;26.95;8.13;;;12.10;99.90;;;;;;5072119;28;20178;-64
2022/07/15 04:54:39;;;;;;;33.75;8.18;;;12.20;99.90;;;;;;5071985;28;20126;-63
2022/07/15 04:57:05;;;;;;;25.42;7.43;;;12.30;99.90;;;;;;5088745;28;20051;-64
2022/07/15 04:59:30;;;;;;;28.65;7.63;;;12.30;99.90;;;;;;5071897;28;20482;-64
2022/07/15 05:01:56;;;;;;;23.65;7.60;;;12.30;99.90;;;;;;5062975;28;20040;-64
2022/07/15 05:04:21;;;;;;;29.73;8.10;;;12.50;99.90;;;;;;5068816;28;20052;-64
2022/07/15 05:06:47;;;;;;;22.65;7.13;;;12.50;99.90;;;;;;5068126;28;20040;-65
2022/07/15 05:09:13;;;;;;;25.83;6.68;;;12.60;99.90;;;;;;5063676;28;20070;-64
2022/07/15 05:11:38;;;;;;;26.98;7.05;;;12.80;99.90;;;;;;5066420;28;20086;-64
2022/07/15 05:14:04;;;;;;;22.88;6.40;;;12.70;99.90;;;;;;5065851;28;20139;-64
2022/07/15 05:16:30;;;;;;;29.40;6.88;;;12.80;99.90;;;;;;5051336;28;20041;-64
2022/07/15 05:18:56;;;;;;;21.55;7.15;;;12.80;99.90;;;;;;5051690;28;20041;-64
2022/07/15 05:21:22;;;;;;;20.42;6.50;;;12.70;99.90;;;;;;5051613;28;20033;-64
2022/07/15 05:23:47;;;;;;;26.25;6.35;;;12.80;99.90;;;;;;5051560;28;20068;-64
2022/07/15 05:26:13;;;;;;;26.17;6.20;;;12.70;99.90;;;;;;5051619;28;20040;-64
2022/07/15 05:28:39;;;;;;;21.73;6.00;;;12.70;99.90;;;;;;5051866;28;20391;-64
2022/07/15 05:31:05;;;;;;;18.30;5.63;;;12.60;99.90;;;;;;5070346;28;20068;-65
2022/07/15 05:37:12;;;;;;;22.42;5.90;;;12.60;99.90;;;;;;5072848;28;20047;-65
2022/07/15 05:39:53;;;;;;;26.80;6.70;;;12.60;99.90;;;;;;5071837;28;20032;-66
2022/07/15 05:42:19;;;;;;;18.52;6.43;;;12.60;99.90;;;;;;5071652;28;20395;-65
2022/07/15 05:44:44;;;;;;;17.90;5.45;;;12.60;99.90;;;;;;5073128;28;20087;-64
2022/07/15 05:47:10;;;;;;;23.08;5.32;;;12.70;99.90;;;;;;5075447;28;20416;-66
2022/07/15 05:49:36;;;;;;;29.65;5.93;;;12.70;99.90;;;;;;5075039;28;20044;-65
2022/07/15 05:52:01;;;;;;;25.83;5.43;;;12.80;99.90;;;;;;5075229;28;20478;-65
2022/07/15 05:54:27;;;;;;;17.92;4.88;;;13.00;99.90;;;;;;5075468;28;20044;-65
2022/07/15 05:56:52;;;;;;;15.65;4.20;;;13.10;99.90;;;;;;5075021;28;20036;-65
2022/07/15 05:59:18;;;;;;;11.55;3.60;;;13.40;99.90;;;;;;5075101;28;20036;-64
2022/07/15 06:01:43;;;;;;;17.02;3.85;;;13.50;99.90;;;;;;5075168;28;20054;-65
2022/07/15 06:04:09;;;;;;;16.85;4.22;;;13.70;99.90;;;;;;5075055;28;20048;-64
2022/07/15 06:06:35;;;;;;;17.70;4.20;;;13.90;99.90;;;;;;5074761;28;20132;-64
2022/07/15 06:09:00;;;;;;;14.43;3.45;;;14.10;99.90;;;;;;5074683;28;20473;-64
2022/07/15 06:11:26;;;;;;;9.65;2.70;;;14.30;99.90;;;;;;5074841;28;20036;-65
2022/07/15 06:14:21;;;;;;;12.73;3.15;;;14.50;99.90;;;;;;5062838;28;20048;-65
2022/07/15 06:16:47;;;;;;;8.40;2.83;;;14.60;99.90;;;;;;5074197;28;20441;-65
2022/07/15 06:22:54;;;;;;;6.70;1.60;;;14.80;99.90;;;;;;5055813;28;20051;-65
2022/07/15 06:25:20;;;;;;;5.75;1.60;;;15.00;99.90;;;;;;5054408;28;20048;-66
2022/07/15 06:27:46;;;;;;;8.57;1.90;;;15.20;99.90;;;;;;5072840;28;20048;-65
2022/07/15 06:30:12;;;;;;;10.65;1.60;;;15.30;99.90;;;;;;5074241;28;20036;-66
2022/07/15 06:32:38;;;;;;;6.55;1.15;;;15.40;99.90;;;;;;5063075;28;20040;-64
2022/07/15 06:35:04;;;;;;;7.30;1.42;;;15.50;99.90;;;;;;5054037;28;20178;-67
2022/07/15 06:37:30;;;;;;;9.52;1.55;;;15.60;99.90;;;;;;5054698;28;20048;-65
2022/07/15 06:39:56;;;;;;;8.82;1.73;;;15.70;99.90;;;;;;5054167;28;20037;-66
2022/07/15 06:42:22;;;;;;;10.55;1.95;;;15.80;99.90;;;;;;5054171;28;20040;-64
2022/07/15 06:44:48;;;;;;;2.47;1.15;;;15.90;99.90;;;;;;5053377;28;20045;-65
2022/07/15 06:47:14;;;;;;;5.18;0.95;;;16.00;99.90;;;;;;5055750;28;20044;-63
2022/07/15 06:49:39;;;;;;;4.53;0.93;;;16.10;99.90;;;;;;5067550;28;20052;-63
2022/07/15 06:52:09;;;;;;;4.25;1.10;;;16.20;99.90;;;;;;5069748;28;20072;-64
2022/07/15 06:54:35;;;;;;;7.20;1.05;;;16.30;99.90;;;;;;5069258;28;20407;-66
2022/07/15 06:57:03;;;;;;;4.63;0.95;;;16.30;99.90;;;;;;5067714;28;20035;-64
2022/07/15 06:59:29;;;;;;;10.50;1.08;;;16.40;99.90;;;;;;5069468;28;20083;-67
2022/07/15 07:01:56;;;;;;;9.07;1.15;;;16.40;99.90;;;;;;5071127;28;20072;-64
2022/07/15 07:04:22;;;;;;;6.43;1.30;;;16.40;99.90;;;;;;5070315;28;20126;-64
2022/07/15 07:06:47;;;;;;;5.60;1.35;;;16.50;99.90;;;;;;5065883;28;20036;-65
2022/07/15 07:09:13;;;;;;;7.22;1.30;;;16.60;99.90;;;;;;5070852;28;20041;-64
2022/07/15 07:11:42;;;;;;;7.75;1.20;;;16.80;99.90;;;;;;5071230;28;20047;-64
2022/07/15 07:14:07;;;;;;;5.60;1.17;;;16.80;99.90;;;;;;5061020;28;20048;-65
2022/07/15 07:16:33;;;;;;;5.32;0.80;;;16.80;99.90;;;;;;5066066;28;20094;-63
2022/07/15 07:18:59;;;;;;;6.25;1.02;;;16.90;99.90;;;;;;5071422;28;20105;-66
2022/07/15 07:21:24;;;;;;;5.40;1.10;;;17.00;99.90;;;;;;5071962;28;20040;-66
2022/07/15 07:23:50;;;;;;;8.38;1.00;;;16.90;99.90;;;;;;5071031;28;20094;-68
2022/07/15 07:26:17;;;;;;;7.22;1.00;;;16.90;99.90;;;;;;5070377;28;20105;-65
2022/07/15 07:28:43;;;;;;;7.20;0.90;;;16.90;99.90;;;;;;5078257;28;20041;-66
2022/07/15 07:31:12;;;;;;;6.13;1.10;;;17.00;99.90;;;;;;5069854;28;20075;-63
2022/07/15 07:33:38;;;;;;;7.05;0.95;;;17.10;99.90;;;;;;5070902;28;20093;-65
2022/07/15 07:36:05;;;;;;;5.00;0.80;;;17.10;99.90;;;;;;5069884;28;20121;-65
2022/07/15 07:38:32;;;;;;;6.00;1.10;;;17.30;99.90;;;;;;5070128;28;20070;-65
2022/07/15 07:40:58;;;;;;;4.82;0.80;;;17.40;99.90;;;;;;5072013;28;20090;-65
2022/07/15 07:43:23;;;;;;;5.10;1.00;;;17.30;99.90;;;;;;5058115;28;20338;-66
2022/07/15 07:45:50;;;;;;;8.15;0.98;;;17.40;99.90;;;;;;5049709;28;20048;-66
2022/07/15 07:48:19;;;;;;;6.38;0.90;;;17.50;99.90;;;;;;5048925;28;20500;-67
2022/07/15 07:50:44;;;;;;;7.25;1.20;;;17.60;99.90;;;;;;5049664;28;20098;-69
2022/07/15 07:53:11;;;;;;;2.97;0.90;;;17.40;99.90;;;;;;5049341;28;20072;-66
2022/07/15 07:55:38;;;;;;;2.55;0.70;;;17.30;99.90;;;;;;5048585;28;20559;-66
2022/07/15 07:58:04;;;;;;;4.05;0.88;;;17.20;99.90;;;;;;5049002;28;20048;-66
2022/07/15 08:00:30;;;;;;;7.47;0.98;;;17.20;99.90;;;;;;5049696;28;20506;-66
2022/07/15 08:02:58;;;;;;;3.80;0.82;;;17.10;99.90;;;;;;5066259;28;20060;-66
2022/07/15 08:05:24;;;;;;;1.65;0.80;;;17.10;99.90;;;;;;5069347;28;20028;-68
2022/07/15 08:07:50;;;;;;;4.47;1.10;;;16.90;99.90;;;;;;5068199;28;20066;-66
2022/07/15 08:10:19;;;;;;;3.80;0.85;;;16.80;99.90;;;;;;5051805;28;20380;-69
2022/07/15 08:12:45;;;;;;;6.65;1.02;;;16.60;99.90;;;;;;5068628;28;20255;-66
2022/07/15 08:15:11;;;;;;;3.78;0.98;;;16.60;99.90;;;;;;5067181;28;20051;-66
2022/07/15 08:17:38;;;;;;;2.67;1.00;;;16.90;99.90;;;;;;5065749;28;20043;-66
2022/07/15 08:20:08;;;;;;;4.13;1.00;;;17.20;99.90;;;;;;5068893;28;20037;-66
2022/07/15 08:22:35;;;;;;;3.55;0.85;;;17.50;99.90;;;;;;5063144;28;20408;-67
2022/07/15 08:25:00;;;;;;;3.38;1.08;;;17.90;99.90;;;;;;5069081;28;20040;-70
2022/07/15 08:27:26;;;;;;;3.17;0.85;;;17.80;99.90;;;;;;5068620;28;20048;-67
2022/07/15 08:29:52;;;;;;;4.28;0.95;;;17.60;99.90;;;;;;5068659;28;20040;-68
2022/07/15 08:32:17;;;;;;;4.65;1.02;;;17.30;99.90;;;;;;5065526;28;20047;-69
2022/07/15 08:34:43;;;;;;;5.47;1.00;;;17.00;99.90;;;;;;5052745;28;20040;-68
2022/07/15 08:37:09;;;;;;;7.25;1.13;;;16.80;99.90;;;;;;5050745;28;20041;-67
2022/07/15 08:39:36;;;;;;;2.88;0.80;;;16.70;99.90;;;;;;5068105;28;20052;-69
2022/07/15 08:42:03;;;;;;;3.42;0.82;;;16.90;99.90;;;;;;5068650;28;20037;-69
2022/07/15 08:44:29;;;;;;;4.03;1.10;;;17.30;99.90;;;;;;5068741;28;20068;-65
2022/07/15 08:47:00;;;;;;;5.00;1.00;;;17.70;99.90;;;;;;5068763;28;20083;-66
2022/07/15 08:49:29;;;;;;;4.97;0.90;;;18.00;99.90;;;;;;5065482;28;20044;-68
2022/07/15 08:51:58;;;;;;;1.50;0.80;;;18.20;99.90;;;;;;5065537;28;20127;-67
2022/07/15 08:54:24;;;;;;;5.90;0.90;;;18.40;99.90;;;;;;5069053;28;20070;-68
2022/07/15 08:56:50;;;;;;;2.47;0.70;;;18.40;99.90;;;;;;5067877;28;20417;-65
2022/07/15 08:59:17;;;;;;;3.60;0.93;;;18.60;99.90;;;;;;5068758;28;20044;-65
2022/07/15 09:01:48;;;;;;;6.00;1.30;;;18.70;99.90;;;;;;5068284;28;20041;-67
2022/07/15 09:04:15;;;;;;;21.48;1.15;;;18.80;99.90;;;;;;5069046;28;20045;-66
2022/07/15 09:06:42;;;;;;;2.65;1.00;;;18.90;99.90;;;;;;5041094;28;20085;-66
2022/07/15 09:09:31;;;;;;;2.70;0.80;;;19.00;99.90;;;;;;5055870;28;20267;-68
2022/07/15 09:12:08;;;;;;;1.70;0.73;;;18.80;99.90;;;;;;5068050;28;20040;-68
2022/07/15 09:14:36;;;;;;;3.95;0.98;;;18.70;99.90;;;;;;5067896;28;20406;-66
2022/07/15 09:17:11;;;;;;;5.97;1.25;;;18.80;99.90;;;;;;5066973;28;20072;-67
2022/07/15 09:20:09;;;;;;;4.00;0.90;;;18.90;99.90;;;;;;5054448;28;20387;-64
2022/07/15 09:22:52;;;;;;;2.30;1.10;;;18.70;99.90;;;;;;5057978;28;20048;-66
2022/07/15 09:25:20;;;;;;;2.33;0.90;;;18.50;99.90;;;;;;5053781;28;20476;-66
2022/07/15 09:27:46;;;;;;;4.47;0.90;;;18.50;99.90;;;;;;5070976;28;20036;-67
2022/07/15 09:33:36;;;;;;;3.25;1.17;;;19.00;99.90;;;;;;5035381;28;20501;-65
2022/07/15 09:36:16;;;;;;;3.80;1.35;;;19.20;99.90;;;;;;5031697;28;20048;-69
2022/07/15 09:38:51;;;;;;;4.85;1.17;;;19.10;99.90;;;;;;5047126;28;20186;-64
2022/07/15 09:41:26;;;;;;;4.25;1.20;;;19.10;99.90;;;;;;5071241;28;20119;-66
2022/07/15 09:43:55;;;;;;;6.43;1.38;;;19.00;99.90;;;;;;5072488;28;20079;-67
2022/07/15 09:46:22;;;;;;;5.47;2.10;;;18.90;99.90;;;;;;5065506;28;20044;-66
2022/07/15 09:48:50;;;;;;;4.68;2.28;;;18.50;99.90;;;;;;5064119;28;20399;-64
2022/07/15 09:51:16;;;;;;;9.98;1.77;;;18.30;99.90;;;;;;5051945;28;20041;-69
2022/07/15 09:53:43;;;;;;;4.20;1.40;;;18.00;99.90;;;;;;5056337;28;20040;-67
2022/07/15 09:56:14;;;;;;;9.73;1.50;;;17.70;99.90;;;;;;5052274;28;20144;-67
2022/07/15 09:58:42;;;;;;;10.82;1.63;;;17.60;99.90;;;;;;5052199;28;20037;-69
2022/07/15 10:01:10;;;;;;;3.88;1.45;;;17.50;99.90;;;;;;5052440;28;20079;-67
2022/07/15 10:03:37;;;;;;;5.45;1.90;;;17.40;99.90;;;;;;5051847;28;20544;-67
2022/07/15 10:06:03;;;;;;;4.25;2.05;;;17.50;99.90;;;;;;5068025;28;20040;-67
2022/07/15 10:08:34;;;;;;;7.30;2.13;;;17.60;99.90;;;;;;5071989;28;20061;-66
2022/07/15 10:11:00;;;;;;;5.63;1.67;;;18.00;99.90;;;;;;5072288;28;20433;-65
2022/07/15 10:14:17;;;;;;;4.13;1.80;;;18.40;99.90;;;;;;5089003;28;20088;-66
2022/07/15 10:17:04;;;;;;;4.22;1.60;;;18.70;99.90;;;;;;5076270;28;20045;-69
2022/07/15 10:20:07;;;;;;;5.55;2.00;;;18.80;99.90;;;;;;5071013;28;20041;-65
2022/07/15 10:23:00;;;;;;;2.88;1.33;;;19.20;99.90;;;;;;5051563;28;20045;-68
2022/07/15 10:25:45;;;;;;;;;;;19.40;99.90;;;;;;5054350;28;20049;-68
2022/07/15 10:28:14;;;;;;;4.15;1.45;;;19.20;99.90;;;;;;5071231;28;19969;-68
2022/07/15 10:30:42;;;;;;;5.10;1.30;;;18.90;99.90;;;;;;5067685;28;20074;-67
2022/07/15 10:33:19;;;;;;;6.93;1.80;;;18.70;99.90;;;;;;5051417;28;20056;-66
2022/07/15 10:35:44;;;;;;;4.60;1.70;;;18.50;99.90;;;;;;5051049;28;20296;-68
2022/07/15 10:38:20;;;;;;;6.13;1.70;;;18.40;99.90;;;;;;5049848;28;20044;-65
2022/07/15 10:40:55;;;;;;;5.72;1.90;;;18.30;99.90;;;;;;5067687;28;20070;-67
2022/07/15 10:43:50;;;;;;;6.72;1.30;;;18.40;99.90;;;;;;5055041;28;20483;-67
2022/07/15 10:46:15;;;;;;;5.28;1.40;;;18.50;99.90;;;;;;5050706;28;20466;-65
2022/07/15 10:48:44;;;;;;;3.38;1.50;;;18.80;99.90;;;;;;5067659;28;20049;-68
2022/07/15 10:51:11;;;;;;;5.55;1.90;;;18.80;99.90;;;;;;5067801;28;20574;-66
2022/07/15 10:53:45;;;;;;;3.95;1.30;;;18.70;99.90;;;;;;5033882;28;20475;-66
2022/07/15 10:56:44;;;;;;;6.45;1.70;;;18.50;99.90;;;;;;5066599;28;20607;-64
2022/07/15 10:59:19;;;;;;;3.50;1.17;;;18.30;99.90;;;;;;5045674;28;20466;-67
2022/07/15 11:02:05;;;;;;;2.97;1.60;;;18.30;99.90;;;;;;5050391;28;20780;-66
2022/07/15 11:04:31;;;;;;;2.88;1.17;;;18.60;99.90;;;;;;5029245;28;20369;-67
2022/07/15 11:07:12;;;;;;;7.97;1.50;;;18.70;99.90;;;;;;5058813;28;20399;-67
2022/07/15 11:09:47;;;;;;;7.05;1.33;;;18.70;99.90;;;;;;5053162;28;20411;-65
2022/07/15 11:12:15;;;;;;;7.07;1.50;;;18.70;99.90;;;;;;5034374;28;20041;-65
2022/07/15 11:14:52;;;;;;;3.47;1.20;;;18.80;99.90;;;;;;5069390;28;20044;-65
2022/07/15 11:17:43;;;;;;;6.07;1.58;;;18.90;99.90;;;;;;5069812;28;20055;-68
2022/07/15 11:20:12;;;;;;;7.03;1.20;;;19.00;99.90;;;;;;5069929;28;20056;-66
2022/07/15 11:22:43;;;;;;;5.53;1.30;;;19.10;99.90;;;;;;5070489;28;20033;-67
2022/07/15 11:25:28;;;;;;;2.78;1.70;;;19.50;99.90;;;;;;5070797;28;20123;-66
2022/07/15 11:28:06;;;;;;;5.68;1.75;;;19.70;99.90;;;;;;5069595;28;20037;-66
2022/07/15 11:30:36;;;;;;;4.55;1.50;;;19.80;99.90;;;;;;5066319;28;20059;-65
2022/07/15 11:33:04;;;;;;;7.55;1.27;;;19.80;99.90;;;;;;5051703;28;20400;-65
2022/07/15 11:35:30;;;;;;;4.50;1.85;;;19.60;99.90;;;;;;5050197;28;20064;-68
2022/07/15 11:38:01;;;;;;;3.72;1.60;;;19.40;99.90;;;;;;5053379;28;20398;-67
2022/07/15 11:45:59;;;;;;;10.75;1.70;;;18.90;99.90;;;;;;5065882;28;20175;-66
2022/07/15 11:48:25;;;;;;;5.25;2.15;;;18.90;99.90;;;;;;5049624;28;20510;-66
2022/07/15 11:50:54;;;;;;;14.13;1.65;;;19.20;99.90;;;;;;5049138;28;20080;-66
2022/07/15 11:53:20;;;;;;;5.63;1.50;;;19.40;99.90;;;;;;5068475;28;20049;-67
2022/07/15 11:55:57;;;;;;;7.63;1.77;;;19.70;99.90;;;;;;5069206;28;20059;-69
2022/07/15 11:58:36;;;;;;;6.32;1.58;;;19.90;99.90;;;;;;5067323;28;20123;-67
2022/07/15 12:01:08;;;;;;;4.05;1.67;;;20.20;99.90;;;;;;5064637;28;20388;-67
2022/07/15 12:03:43;;;;;;;6.72;1.48;;;20.40;99.90;;;;;;5049263;28;20047;-65
2022/07/15 12:06:15;;;;;;;6.28;1.30;;;20.30;99.90;;;;;;5058955;28;20048;-66
2022/07/15 12:08:49;;;;;;;4.83;1.23;;;20.10;99.90;;;;;;5065974;28;20087;-67
2022/07/15 12:11:44;;;;;;;6.40;1.63;;;20.30;99.90;;;;;;5069540;28;20294;-66
2022/07/15 12:14:12;;;;;;;4.68;1.92;;;20.20;99.90;;;;;;5059969;28;20060;-66
2022/07/15 12:16:42;;;;;;;8.57;1.63;;;20.10;99.90;;;;;;5060865;28;20109;-65
2022/07/15 12:19:20;;;;;;;4.20;1.25;;;20.30;99.90;;;;;;5068585;28;20458;-66
2022/07/15 12:21:48;;;;;;;5.85;1.73;;;20.10;99.90;;;;;;5062977;28;20070;-66
2022/07/15 12:24:21;;;;;;;7.72;1.80;;;20.00;99.90;;;;;;5066148;28;20033;-64
2022/07/15 12:26:50;;;;;;;4.53;1.20;;;20.00;99.90;;;;;;5049974;28;20041;-65
2022/07/15 12:29:18;;;;;;;3.50;1.38;;;20.10;99.90;;;;;;5052551;28;20055;-65
2022/07/15 12:31:54;;;;;;;2.90;1.63;;;20.20;99.90;;;;;;5053227;28;20374;-66
2022/07/15 12:34:20;;;;;;;11.68;1.77;;;20.00;99.90;;;;;;5080803;28;20040;-64
2022/07/15 12:36:56;;;;;;;3.28;1.50;;;20.00;99.90;;;;;;5068328;28;20049;-65
2022/07/15 12:39:21;;;;;;;3.63;1.48;;;19.90;99.90;;;;;;5075011;28;20259;-66
2022/07/15 12:42:02;;;;;;;3.08;1.00;;;19.90;99.90;;;;;;5074148;28;20127;-67
2022/07/15 12:44:30;;;;;;;4.93;1.38;;;20.10;99.90;;;;;;5068578;28;20127;-67
2022/07/15 12:46:56;;;;;;;4.35;1.40;;;20.20;99.90;;;;;;5068522;28;20106;-65
2022/07/15 12:49:44;;;;;;;7.05;1.30;;;20.50;99.90;;;;;;5063966;28;20076;-68
2022/07/15 12:52:23;;;;;;;4.32;1.67;;;20.60;99.90;;;;;;5063229;28;20048;-67
2022/07/15 12:54:51;;;;;;;3.50;1.40;;;20.30;99.90;;;;;;5065844;28;20147;-65
2022/07/15 12:57:27;;;;;;;5.90;1.40;;;20.10;99.90;;;;;;5072285;28;20040;-66
2022/07/15 13:00:05;;;;;;;6.22;1.60;;;20.30;99.90;;;;;;5075067;28;20044;-66
2022/07/15 13:02:31;;;;;;;6.88;1.60;;;20.10;99.90;;;;;;5068089;28;20041;-66
2022/07/15 13:04:57;;;;;;;3.53;1.33;;;19.90;99.90;;;;;;5066940;28;20368;-65
2022/07/15 13:07:23;;;;;;;3.42;1.10;;;20.00;99.90;;;;;;5067881;28;20262;-68
2022/07/15 13:09:49;;;;;;;5.97;1.45;;;20.40;99.90;;;;;;5063072;28;20131;-65
2022/07/15 13:12:15;;;;;;;5.68;1.25;;;20.80;99.90;;;;;;5069021;28;20044;-66
2022/07/15 13:14:41;;;;;;;2.75;1.40;;;20.80;99.90;;;;;;5068537;28;20044;-67
2022/07/15 13:17:07;;;;;;;4.78;1.38;;;20.70;99.90;;;;;;5068168;28;20127;-67
2022/07/15 13:19:33;;;;;;;3.13;1.05;;;20.80;99.90;;;;;;5068997;28;20044;-66
2022/07/15 13:22:00;;;;;;;5.05;1.35;;;20.70;99.90;;;;;;5062042;28;20036;-66
2022/07/15 13:24:26;;;;;;;4.38;1.38;;;20.70;99.90;;;;;;5066087;28;20068;-65
2022/07/15 13:26:51;;;;;;;5.90;1.50;;;20.50;99.90;;;;;;5061044;28;20083;-65
2022/07/15 13:29:17;;;;;;;6.75;1.85;;;20.30;99.90;;;;;;5070088;28;20124;-66